sensor_id;sensor_type;location;lat;lon;timestamp;temperature;humidity
23991;DHT22;12205;50.600;4.608;2022-12-07T00:00:55;4.70;99.90
23991;DHT22;12205;50.600;4.608;2022-12-07T00:03:30;4.60;99.90
23991;DHT22;12205;50.600;4.608;2022-12-07T00:05:57;4.60;99.90
23991;DHT22;12205;50.600;4.608;2022-12-07T00:08:25;4.70;99.90
23991;DHT22;12205;50.600;4.608;2022-12-07T00:10:52;4.70;99.90
23991;DHT22;12205;50.600;4.608;2022-12-07T00:13:19;4.70;99.90
23991;DHT22;12205;50.600;4.608;2022-12-07T00:15:46;4.70;99.90
23991;DHT22;12205;50.600;4.608;2022-12-07T00:18:15;4.70;99.90
23991;DHT22;12205;50.600;4.608;2022-12-07T00:20:42;4.70;99.90
23991;DHT22;12205;50.600;4.608;2022-12-07T00:23:09;4.70;99.90
23991;DHT22;12205;50.600;4.608;2022-12-07T00:25:37;4.70;99.90
23991;DHT22;12205;50.600;4.608;2022-12-07T00:28:04;4.70;99.90
23991;DHT22;12205;50.600;4.608;2022-12-07T00:30:32;4.70;99.90
23991;DHT22;12205;50.600;4.608;2022-12-07T00:32:59;4.70;99.90
23991;DHT22;12205;50.600;4.608;2022-12-07T00:35:28;4.70;99.90
23991;DHT22;12205;50.600;4.608;2022-12-07T00:37:55;4.80;99.90
23991;DHT22;12205;50.600;4.608;2022-12-07T00:40:22;4.80;99.90
23991;DHT22;12205;50.600;4.608;2022-12-07T00:42:49;4.70;99.90
23991;DHT22;12205;50.600;4.608;2022-12-07T00:45:17;4.70;99.90
23991;DHT22;12205;50.600;4.608;2022-12-07T00:47:44;4.70;99.90
23991;DHT22;12205;50.600;4.608;2022-12-07T00:50:11;4.70;99.90
23991;DHT22;12205;50.600;4.608;2022-12-07T00:52:40;4.70;99.90
23991;DHT22;12205;50.600;4.608;2022-12-07T00:55:08;4.60;99.90
23991;DHT22;12205;50.600;4.608;2022-12-07T00:57:35;4.60;99.90
23991;DHT22;12205;50.600;4.608;2022-12-07T01:00:02;4.50;99.90
23991;DHT22;12205;50.600;4.608;2022-12-07T01:02:29;4.50;99.90
23991;DHT22;12205;50.600;4.608;2022-12-07T01:04:57;4.50;99.90
23991;DHT22;12205;50.600;4.608;2022-12-07T01:07:24;4.40;99.90
23991;DHT22;12205;50.600;4.608;2022-12-07T01:09:52;4.40;99.90
23991;DHT22;12205;50.600;4.608;2022-12-07T01:12:19;4.40;99.90
23991;DHT22;12205;50.600;4.608;2022-12-07T01:14:47;4.40;99.90
23991;DHT22;12205;50.600;4.608;2022-12-07T01:17:14;4.40;99.90
23991;DHT22;12205;50.600;4.608;2022-12-07T01:19:41;4.40;99.90
23991;DHT22;12205;50.600;4.608;2022-12-07T01:22:08;4.40;99.90
23991;DHT22;12205;50.600;4.608;2022-12-07T01:24:35;4.30;99.90
23991;DHT22;12205;50.600;4.608;2022-12-07T01:27:04;4.40;99.90
23991;DHT22;12205;50.600;4.608;2022-12-07T01:29:31;4.40;99.90
23991;DHT22;12205;50.600;4.608;2022-12-07T01:31:58;4.40;99.90
23991;DHT22;12205;50.600;4.608;2022-12-07T01:34:25;4.30;99.90
23991;DHT22;12205;50.600;4.608;2022-12-07T01:36:53;4.30;99.90
23991;DHT22;12205;50.600;4.608;2022-12-07T01:39:20;4.30;99.90
23991;DHT22;12205;50.600;4.608;2022-12-07T01:41:47;4.30;99.90
23991;DHT22;12205;50.600;4.608;2022-12-07T01:44:19;4.30;99.90
23991;DHT22;12205;50.600;4.608;2022-12-07T01:46:49;4.30;99.90
23991;DHT22;12205;50.600;4.608;2022-12-07T01:49:23;4.40;99.90
23991;DHT22;12205;50.600;4.608;2022-12-07T01:51:59;4.40;99.90
23991;DHT22;12205;50.600;4.608;2022-12-07T01:54:35;4.40;99.90
23991;DHT22;12205;50.600;4.608;2022-12-07T01:57:03;4.50;99.90
23991;DHT22;12205;50.600;4.608;2022-12-07T01:59:34;4.50;99.90
23991;DHT22;12205;50.600;4.608;2022-12-07T02:02:05;4.50;99.90
23991;DHT22;12205;50.600;4.608;2022-12-07T02:04:39;4.50;99.90
23991;DHT22;12205;50.600;4.608;2022-12-07T02:07:06;4.50;99.90
23991;DHT22;12205;50.600;4.608;2022-12-07T02:09:34;4.50;99.90
23991;DHT22;12205;50.600;4.608;2022-12-07T02:12:01;4.50;99.90
23991;DHT22;12205;50.600;4.608;2022-12-07T02:14:29;4.50;99.90
23991;DHT22;12205;50.600;4.608;2022-12-07T02:17:07;4.40;99.90
23991;DHT22;12205;50.600;4.608;2022-12-07T02:20:04;4.50;99.90
23991;DHT22;12205;50.600;4.608;2022-12-07T02:23:00;4.40;99.90
23991;DHT22;12205;50.600;4.608;2022-12-07T02:25:57;4.40;99.90
23991;DHT22;12205;50.600;4.608;2022-12-07T02:29:02;4.30;99.90
23991;DHT22;12205;50.600;4.608;2022-12-07T02:31:46;4.30;99.90
23991;DHT22;12205;50.600;4.608;2022-12-07T02:34:31;4.30;99.90
23991;DHT22;12205;50.600;4.608;2022-12-07T02:37:12;4.30;99.90
23991;DHT22;12205;50.600;4.608;2022-12-07T02:39:48;4.30;99.90
23991;DHT22;12205;50.600;4.608;2022-12-07T02:42:25;4.40;99.90
23991;DHT22;12205;50.600;4.608;2022-12-07T02:44:59;4.50;99.90
23991;DHT22;12205;50.600;4.608;2022-12-07T02:47:29;4.50;99.90
23991;DHT22;12205;50.600;4.608;2022-12-07T02:49:58;4.50;99.90
23991;DHT22;12205;50.600;4.608;2022-12-07T02:52:25;4.50;99.90
23991;DHT22;12205;50.600;4.608;2022-12-07T02:54:53;4.50;99.90
23991;DHT22;12205;50.600;4.608;2022-12-07T02:57:29;4.50;99.90
23991;DHT22;12205;50.600;4.608;2022-12-07T03:00:11;4.50;99.90
23991;DHT22;12205;50.600;4.608;2022-12-07T03:02:52;4.60;99.90
23991;DHT22;12205;50.600;4.608;2022-12-07T03:05:31;4.50;99.90
23991;DHT22;12205;50.600;4.608;2022-12-07T03:08:15;4.60;99.90
23991;DHT22;12205;50.600;4.608;2022-12-07T03:10:56;4.60;99.90
23991;DHT22;12205;50.600;4.608;2022-12-07T03:13:30;4.60;99.90
23991;DHT22;12205;50.600;4.608;2022-12-07T03:16:08;4.60;99.90
23991;DHT22;12205;50.600;4.608;2022-12-07T03:18:44;4.70;99.90
23991;DHT22;12205;50.600;4.608;2022-12-07T03:21:17;4.70;99.90
23991;DHT22;12205;50.600;4.608;2022-12-07T03:23:51;4.70;99.90
23991;DHT22;12205;50.600;4.608;2022-12-07T03:26:22;4.80;99.90
23991;DHT22;12205;50.600;4.608;2022-12-07T03:28:55;4.80;99.90
23991;DHT22;12205;50.600;4.608;2022-12-07T03:31:31;4.90;99.90
23991;DHT22;12205;50.600;4.608;2022-12-07T03:34:04;4.90;99.90
23991;DHT22;12205;50.600;4.608;2022-12-07T03:36:37;5.00;99.90
23991;DHT22;12205;50.600;4.608;2022-12-07T03:39:19;4.90;99.90
23991;DHT22;12205;50.600;4.608;2022-12-07T03:41:51;4.90;99.90
23991;DHT22;12205;50.600;4.608;2022-12-07T03:44:20;4.90;99.90
23991;DHT22;12205;50.600;4.608;2022-12-07T03:46:55;4.90;99.90
23991;DHT22;12205;50.600;4.608;2022-12-07T03:49:32;4.90;99.90
23991;DHT22;12205;50.600;4.608;2022-12-07T03:52:12;4.90;99.90
23991;DHT22;12205;50.600;4.608;2022-12-07T03:54:49;4.90;99.90
23991;DHT22;12205;50.600;4.608;2022-12-07T03:57:22;4.90;99.90
23991;DHT22;12205;50.600;4.608;2022-12-07T03:59:53;4.90;99.90
23991;DHT22;12205;50.600;4.608;2022-12-07T04:02:24;4.90;99.90
23991;DHT22;12205;50.600;4.608;2022-12-07T04:04:53;4.90;99.90
23991;DHT22;12205;50.600;4.608;2022-12-07T04:07:20;4.80;99.90
23991;DHT22;12205;50.600;4.608;2022-12-07T04:09:47;4.80;99.90
23991;DHT22;12205;50.600;4.608;2022-12-07T04:12:15;4.80;99.90
23991;DHT22;12205;50.600;4.608;2022-12-07T04:14:42;4.70;99.90
23991;DHT22;12205;50.600;4.608;2022-12-07T04:17:09;4.70;99.90
23991;DHT22;12205;50.600;4.608;2022-12-07T04:19:37;4.70;99.90
23991;DHT22;12205;50.600;4.608;2022-12-07T04:22:05;4.70;99.90
23991;DHT22;12205;50.600;4.608;2022-12-07T04:24:33;4.70;99.90
23991;DHT22;12205;50.600;4.608;2022-12-07T04:27:00;4.70;99.90
23991;DHT22;12205;50.600;4.608;2022-12-07T04:29:28;4.70;99.90
23991;DHT22;12205;50.600;4.608;2022-12-07T04:31:55;4.70;99.90
23991;DHT22;12205;50.600;4.608;2022-12-07T04:34:22;4.70;99.90
23991;DHT22;12205;50.600;4.608;2022-12-07T04:36:51;4.80;99.90
23991;DHT22;12205;50.600;4.608;2022-12-07T04:39:21;4.80;99.90
23991;DHT22;12205;50.600;4.608;2022-12-07T04:41:49;4.80;99.90
23991;DHT22;12205;50.600;4.608;2022-12-07T04:44:17;4.80;99.90
23991;DHT22;12205;50.600;4.608;2022-12-07T04:46:45;4.80;99.90
23991;DHT22;12205;50.600;4.608;2022-12-07T04:49:14;4.70;99.90
23991;DHT22;12205;50.600;4.608;2022-12-07T04:51:42;4.70;99.90
23991;DHT22;12205;50.600;4.608;2022-12-07T04:54:11;4.60;99.90
23991;DHT22;12205;50.600;4.608;2022-12-07T04:56:39;4.60;99.90
23991;DHT22;12205;50.600;4.608;2022-12-07T04:59:07;4.60;99.90
23991;DHT22;12205;50.600;4.608;2022-12-07T05:01:35;4.50;99.90
23991;DHT22;12205;50.600;4.608;2022-12-07T05:04:03;4.50;99.90
23991;DHT22;12205;50.600;4.608;2022-12-07T05:06:30;4.50;99.90
23991;DHT22;12205;50.600;4.608;2022-12-07T05:08:57;4.40;99.90
23991;DHT22;12205;50.600;4.608;2022-12-07T05:11:26;4.40;99.90
23991;DHT22;12205;50.600;4.608;2022-12-07T05:14:08;4.40;99.90
23991;DHT22;12205;50.600;4.608;2022-12-07T05:16:38;4.40;99.90
23991;DHT22;12205;50.600;4.608;2022-12-07T05:19:05;4.40;99.90
23991;DHT22;12205;50.600;4.608;2022-12-07T05:21:33;4.40;99.90
23991;DHT22;12205;50.600;4.608;2022-12-07T05:24:00;4.40;99.90
23991;DHT22;12205;50.600;4.608;2022-12-07T05:26:30;4.40;99.90
23991;DHT22;12205;50.600;4.608;2022-12-07T05:28:58;4.40;99.90
23991;DHT22;12205;50.600;4.608;2022-12-07T05:31:26;4.40;99.90
23991;DHT22;12205;50.600;4.608;2022-12-07T05:33:54;4.40;99.90
23991;DHT22;12205;50.600;4.608;2022-12-07T05:36:21;4.40;99.90
23991;DHT22;12205;50.600;4.608;2022-12-07T05:38:48;4.50;99.90
23991;DHT22;12205;50.600;4.608;2022-12-07T05:41:18;4.50;99.90
23991;DHT22;12205;50.600;4.608;2022-12-07T05:44:04;4.50;99.90
23991;DHT22;12205;50.600;4.608;2022-12-07T05:46:32;4.40;99.90
23991;DHT22;12205;50.600;4.608;2022-12-07T05:49:00;4.40;99.90
23991;DHT22;12205;50.600;4.608;2022-12-07T05:51:27;4.40;99.90
23991;DHT22;12205;50.600;4.608;2022-12-07T05:53:54;4.40;99.90
23991;DHT22;12205;50.600;4.608;2022-12-07T05:56:21;4.40;99.90
23991;DHT22;12205;50.600;4.608;2022-12-07T05:58:49;4.40;99.90
23991;DHT22;12205;50.600;4.608;2022-12-07T06:01:36;4.40;99.90
23991;DHT22;12205;50.600;4.608;2022-12-07T06:04:03;4.40;99.90
23991;DHT22;12205;50.600;4.608;2022-12-07T06:06:30;4.40;99.90
23991;DHT22;12205;50.600;4.608;2022-12-07T06:08:58;4.40;99.90
23991;DHT22;12205;50.600;4.608;2022-12-07T06:11:25;4.40;99.90
23991;DHT22;12205;50.600;4.608;2022-12-07T06:14:09;4.40;99.90
23991;DHT22;12205;50.600;4.608;2022-12-07T06:16:38;4.50;99.90
23991;DHT22;12205;50.600;4.608;2022-12-07T06:19:05;4.50;99.90
23991;DHT22;12205;50.600;4.608;2022-12-07T06:21:33;4.50;99.90
23991;DHT22;12205;50.600;4.608;2022-12-07T06:24:00;4.50;99.90
23991;DHT22;12205;50.600;4.608;2022-12-07T06:26:27;4.60;99.90
23991;DHT22;12205;50.600;4.608;2022-12-07T06:28:54;4.60;99.90
23991;DHT22;12205;50.600;4.608;2022-12-07T06:31:22;4.60;99.90
23991;DHT22;12205;50.600;4.608;2022-12-07T06:33:50;4.60;99.90
23991;DHT22;12205;50.600;4.608;2022-12-07T06:36:17;4.60;99.90
23991;DHT22;12205;50.600;4.608;2022-12-07T06:38:45;4.60;99.90
23991;DHT22;12205;50.600;4.608;2022-12-07T06:41:12;4.60;99.90
23991;DHT22;12205;50.600;4.608;2022-12-07T06:43:39;4.60;99.90
23991;DHT22;12205;50.600;4.608;2022-12-07T06:46:08;4.60;99.90
23991;DHT22;12205;50.600;4.608;2022-12-07T06:48:35;4.60;99.90
23991;DHT22;12205;50.600;4.608;2022-12-07T06:51:04;4.60;99.90
23991;DHT22;12205;50.600;4.608;2022-12-07T06:53:31;4.60;99.90
23991;DHT22;12205;50.600;4.608;2022-12-07T06:55:58;4.60;99.90
23991;DHT22;12205;50.600;4.608;2022-12-07T06:58:25;4.60;99.90
23991;DHT22;12205;50.600;4.608;2022-12-07T07:00:53;4.60;99.90
23991;DHT22;12205;50.600;4.608;2022-12-07T07:03:20;4.60;99.90
23991;DHT22;12205;50.600;4.608;2022-12-07T07:05:48;4.60;99.90
23991;DHT22;12205;50.600;4.608;2022-12-07T07:08:17;4.50;99.90
23991;DHT22;12205;50.600;4.608;2022-12-07T07:10:44;4.50;99.90
23991;DHT22;12205;50.600;4.608;2022-12-07T07:13:11;4.40;99.90
23991;DHT22;12205;50.600;4.608;2022-12-07T07:15:38;4.40;99.90
23991;DHT22;12205;50.600;4.608;2022-12-07T07:18:05;4.40;99.90
23991;DHT22;12205;50.600;4.608;2022-12-07T07:20:33;4.40;99.90
23991;DHT22;12205;50.600;4.608;2022-12-07T07:23:00;4.50;99.90
23991;DHT22;12205;50.600;4.608;2022-12-07T07:25:29;4.50;99.90
23991;DHT22;12205;50.600;4.608;2022-12-07T07:27:56;4.50;99.90
23991;DHT22;12205;50.600;4.608;2022-12-07T07:30:24;4.50;99.90
23991;DHT22;12205;50.600;4.608;2022-12-07T07:32:51;4.50;99.90
23991;DHT22;12205;50.600;4.608;2022-12-07T07:35:23;4.50;99.90
23991;DHT22;12205;50.600;4.608;2022-12-07T07:37:50;4.50;99.90
23991;DHT22;12205;50.600;4.608;2022-12-07T07:40:17;4.50;99.90
23991;DHT22;12205;50.600;4.608;2022-12-07T07:42:48;4.50;99.90
23991;DHT22;12205;50.600;4.608;2022-12-07T07:45:16;4.50;99.90
23991;DHT22;12205;50.600;4.608;2022-12-07T07:47:43;4.50;99.90
23991;DHT22;12205;50.600;4.608;2022-12-07T07:50:11;4.60;99.90
23991;DHT22;12205;50.600;4.608;2022-12-07T07:52:38;4.60;99.90
23991;DHT22;12205;50.600;4.608;2022-12-07T07:55:07;4.60;99.90
23991;DHT22;12205;50.600;4.608;2022-12-07T07:57:35;4.60;99.90
23991;DHT22;12205;50.600;4.608;2022-12-07T08:00:05;4.70;99.90
23991;DHT22;12205;50.600;4.608;2022-12-07T08:02:38;4.70;99.90
23991;DHT22;12205;50.600;4.608;2022-12-07T08:05:06;4.70;99.90
23991;DHT22;12205;50.600;4.608;2022-12-07T08:07:34;4.70;99.90
23991;DHT22;12205;50.600;4.608;2022-12-07T08:10:01;4.70;99.90
23991;DHT22;12205;50.600;4.608;2022-12-07T08:12:28;4.70;99.90
23991;DHT22;12205;50.600;4.608;2022-12-07T08:14:55;4.70;99.90
23991;DHT22;12205;50.600;4.608;2022-12-07T08:17:24;4.70;99.90
23991;DHT22;12205;50.600;4.608;2022-12-07T08:19:51;4.70;99.90
23991;DHT22;12205;50.600;4.608;2022-12-07T08:22:18;4.80;99.90
23991;DHT22;12205;50.600;4.608;2022-12-07T08:24:45;4.70;99.90
23991;DHT22;12205;50.600;4.608;2022-12-07T08:27:12;4.80;99.90
23991;DHT22;12205;50.600;4.608;2022-12-07T08:29:40;4.80;99.90
23991;DHT22;12205;50.600;4.608;2022-12-07T08:32:07;4.70;99.90
23991;DHT22;12205;50.600;4.608;2022-12-07T08:34:36;4.80;99.90
23991;DHT22;12205;50.600;4.608;2022-12-07T08:37:03;4.70;99.90
23991;DHT22;12205;50.600;4.608;2022-12-07T08:39:31;4.80;99.90
23991;DHT22;12205;50.600;4.608;2022-12-07T08:41:58;4.80;99.90
23991;DHT22;12205;50.600;4.608;2022-12-07T08:44:25;4.80;99.90
23991;DHT22;12205;50.600;4.608;2022-12-07T08:46:56;4.80;99.90
23991;DHT22;12205;50.600;4.608;2022-12-07T08:49:31;4.80;99.90
23991;DHT22;12205;50.600;4.608;2022-12-07T08:52:04;4.80;99.90
23991;DHT22;12205;50.600;4.608;2022-12-07T08:54:33;4.80;99.90
23991;DHT22;12205;50.600;4.608;2022-12-07T08:57:05;4.80;99.90
23991;DHT22;12205;50.600;4.608;2022-12-07T08:59:35;4.80;99.90
23991;DHT22;12205;50.600;4.608;2022-12-07T09:02:03;4.80;99.90
23991;DHT22;12205;50.600;4.608;2022-12-07T09:04:31;4.80;99.90
23991;DHT22;12205;50.600;4.608;2022-12-07T09:06:59;4.80;99.90
23991;DHT22;12205;50.600;4.608;2022-12-07T09:09:27;4.80;99.90
23991;DHT22;12205;50.600;4.608;2022-12-07T09:11:54;4.80;99.90
23991;DHT22;12205;50.600;4.608;2022-12-07T09:14:22;4.80;99.90
23991;DHT22;12205;50.600;4.608;2022-12-07T09:16:50;4.80;99.90
23991;DHT22;12205;50.600;4.608;2022-12-07T09:19:17;4.80;99.90
23991;DHT22;12205;50.600;4.608;2022-12-07T09:21:44;4.90;99.90
23991;DHT22;12205;50.600;4.608;2022-12-07T09:24:11;5.00;99.90
23991;DHT22;12205;50.600;4.608;2022-12-07T09:26:40;5.00;99.90
23991;DHT22;12205;50.600;4.608;2022-12-07T09:29:07;5.10;99.90
23991;DHT22;12205;50.600;4.608;2022-12-07T09:31:36;5.20;99.90
23991;DHT22;12205;50.600;4.608;2022-12-07T09:34:04;5.30;99.90
23991;DHT22;12205;50.600;4.608;2022-12-07T09:36:33;5.30;99.90
23991;DHT22;12205;50.600;4.608;2022-12-07T09:39:00;5.40;99.90
23991;DHT22;12205;50.600;4.608;2022-12-07T09:41:31;5.50;99.90
23991;DHT22;12205;50.600;4.608;2022-12-07T09:44:04;5.50;99.90
23991;DHT22;12205;50.600;4.608;2022-12-07T09:46:38;5.60;99.90
23991;DHT22;12205;50.600;4.608;2022-12-07T09:49:11;5.70;99.90
23991;DHT22;12205;50.600;4.608;2022-12-07T09:51:41;5.60;99.90
23991;DHT22;12205;50.600;4.608;2022-12-07T09:54:12;5.60;99.90
23991;DHT22;12205;50.600;4.608;2022-12-07T09:56:41;5.60;99.90
23991;DHT22;12205;50.600;4.608;2022-12-07T09:59:15;5.60;99.90
23991;DHT22;12205;50.600;4.608;2022-12-07T10:01:46;5.70;99.90
23991;DHT22;12205;50.600;4.608;2022-12-07T10:04:17;5.80;99.90
23991;DHT22;12205;50.600;4.608;2022-12-07T10:06:47;5.80;99.90
23991;DHT22;12205;50.600;4.608;2022-12-07T10:09:18;5.90;99.90
23991;DHT22;12205;50.600;4.608;2022-12-07T10:12:05;5.90;99.90
23991;DHT22;12205;50.600;4.608;2022-12-07T10:14:37;6.00;99.90
23991;DHT22;12205;50.600;4.608;2022-12-07T10:17:29;6.10;99.90
23991;DHT22;12205;50.600;4.608;2022-12-07T10:20:21;6.10;99.90
23991;DHT22;12205;50.600;4.608;2022-12-07T10:22:58;6.20;99.90
23991;DHT22;12205;50.600;4.608;2022-12-07T10:25:29;6.20;99.90
23991;DHT22;12205;50.600;4.608;2022-12-07T10:28:12;6.30;99.90
23991;DHT22;12205;50.600;4.608;2022-12-07T10:30:57;6.30;99.90
23991;DHT22;12205;50.600;4.608;2022-12-07T10:33:35;6.50;99.90
23991;DHT22;12205;50.600;4.608;2022-12-07T10:36:19;6.50;99.90
23991;DHT22;12205;50.600;4.608;2022-12-07T10:38:51;6.50;99.90
23991;DHT22;12205;50.600;4.608;2022-12-07T10:41:19;6.50;99.90
23991;DHT22;12205;50.600;4.608;2022-12-07T10:43:49;6.60;99.90
23991;DHT22;12205;50.600;4.608;2022-12-07T10:46:48;6.60;99.90
23991;DHT22;12205;50.600;4.608;2022-12-07T10:49:49;6.60;99.90
23991;DHT22;12205;50.600;4.608;2022-12-07T10:52:40;6.70;99.90
23991;DHT22;12205;50.600;4.608;2022-12-07T10:55:20;6.70;99.90
23991;DHT22;12205;50.600;4.608;2022-12-07T10:58:06;6.80;99.90
23991;DHT22;12205;50.600;4.608;2022-12-07T11:00:55;7.00;99.90
23991;DHT22;12205;50.600;4.608;2022-12-07T11:03:45;6.90;99.90
23991;DHT22;12205;50.600;4.608;2022-12-07T11:06:34;7.00;99.90
23991;DHT22;12205;50.600;4.608;2022-12-07T11:09:23;7.00;99.90
23991;DHT22;12205;50.600;4.608;2022-12-07T11:12:08;7.00;99.90
23991;DHT22;12205;50.600;4.608;2022-12-07T11:14:46;7.00;99.90
23991;DHT22;12205;50.600;4.608;2022-12-07T11:17:24;7.00;99.90
23991;DHT22;12205;50.600;4.608;2022-12-07T11:20:12;7.00;99.90
23991;DHT22;12205;50.600;4.608;2022-12-07T11:22:53;7.00;99.90
23991;DHT22;12205;50.600;4.608;2022-12-07T11:25:31;7.00;99.90
23991;DHT22;12205;50.600;4.608;2022-12-07T11:28:17;7.00;99.90
23991;DHT22;12205;50.600;4.608;2022-12-07T11:30:59;6.90;99.90
23991;DHT22;12205;50.600;4.608;2022-12-07T11:33:36;7.00;99.90
23991;DHT22;12205;50.600;4.608;2022-12-07T11:36:23;7.00;99.90
23991;DHT22;12205;50.600;4.608;2022-12-07T11:39:00;6.90;99.90
23991;DHT22;12205;50.600;4.608;2022-12-07T11:41:34;6.90;99.90
23991;DHT22;12205;50.600;4.608;2022-12-07T11:44:06;7.00;99.90
23991;DHT22;12205;50.600;4.608;2022-12-07T11:46:45;7.00;99.90
23991;DHT22;12205;50.600;4.608;2022-12-07T11:49:23;6.90;99.90
23991;DHT22;12205;50.600;4.608;2022-12-07T11:51:58;6.80;99.90
23991;DHT22;12205;50.600;4.608;2022-12-07T11:54:34;6.90;99.90
23991;DHT22;12205;50.600;4.608;2022-12-07T11:57:12;6.90;99.90
23991;DHT22;12205;50.600;4.608;2022-12-07T11:59:48;6.90;99.90
23991;DHT22;12205;50.600;4.608;2022-12-07T12:02:22;6.90;99.90
23991;DHT22;12205;50.600;4.608;2022-12-07T12:04:58;6.90;99.90
23991;DHT22;12205;50.600;4.608;2022-12-07T12:07:34;6.90;99.90
23991;DHT22;12205;50.600;4.608;2022-12-07T12:10:06;6.70;99.90
23991;DHT22;12205;50.600;4.608;2022-12-07T12:16:29;6.80;99.90
23991;DHT22;12205;50.600;4.608;2022-12-07T12:19:23;6.70;99.90
23991;DHT22;12205;50.600;4.608;2022-12-07T12:21:57;6.70;99.90
23991;DHT22;12205;50.600;4.608;2022-12-07T12:24:32;6.70;99.90
23991;DHT22;12205;50.600;4.608;2022-12-07T12:27:04;6.60;99.90
23991;DHT22;12205;50.600;4.608;2022-12-07T12:29:34;6.80;99.90
23991;DHT22;12205;50.600;4.608;2022-12-07T12:32:12;6.80;99.90
23991;DHT22;12205;50.600;4.608;2022-12-07T12:34:59;6.80;99.90
23991;DHT22;12205;50.600;4.608;2022-12-07T12:37:42;6.90;99.90
23991;DHT22;12205;50.600;4.608;2022-12-07T12:43:51;6.90;99.90
23991;DHT22;12205;50.600;4.608;2022-12-07T12:46:46;6.90;99.90
23991;DHT22;12205;50.600;4.608;2022-12-07T12:49:40;6.80;99.90
23991;DHT22;12205;50.600;4.608;2022-12-07T13:29:25;7.00;99.90
23991;DHT22;12205;50.600;4.608;2022-12-07T13:31:55;6.90;99.90
23991;DHT22;12205;50.600;4.608;2022-12-07T13:34:30;6.90;99.90
23991;DHT22;12205;50.600;4.608;2022-12-07T13:37:00;6.90;99.90
23991;DHT22;12205;50.600;4.608;2022-12-07T13:39:28;6.90;99.90
23991;DHT22;12205;50.600;4.608;2022-12-07T13:41:57;6.90;99.90
23991;DHT22;12205;50.600;4.608;2022-12-07T13:44:33;6.80;99.90
23991;DHT22;12205;50.600;4.608;2022-12-07T13:47:06;6.90;99.90
23991;DHT22;12205;50.600;4.608;2022-12-07T13:49:47;6.90;99.90
23991;DHT22;12205;50.600;4.608;2022-12-07T13:52:17;6.90;99.90
23991;DHT22;12205;50.600;4.608;2022-12-07T13:54:48;6.90;99.90
23991;DHT22;12205;50.600;4.608;2022-12-07T13:57:17;7.00;99.90
23991;DHT22;12205;50.600;4.608;2022-12-07T13:59:46;6.90;99.90
23991;DHT22;12205;50.600;4.608;2022-12-07T14:02:19;6.80;99.90
23991;DHT22;12205;50.600;4.608;2022-12-07T14:04:49;6.70;99.90
23991;DHT22;12205;50.600;4.608;2022-12-07T14:07:23;6.70;99.90
23991;DHT22;12205;50.600;4.608;2022-12-07T14:09:56;6.80;99.90
23991;DHT22;12205;50.600;4.608;2022-12-07T14:12:26;6.90;99.90
23991;DHT22;12205;50.600;4.608;2022-12-07T14:14:58;6.90;99.90
23991;DHT22;12205;50.600;4.608;2022-12-07T14:17:29;6.90;99.90
23991;DHT22;12205;50.600;4.608;2022-12-07T14:19:57;6.90;99.90
23991;DHT22;12205;50.600;4.608;2022-12-07T14:22:28;6.90;99.90
23991;DHT22;12205;50.600;4.608;2022-12-07T14:25:14;6.90;99.90
23991;DHT22;12205;50.600;4.608;2022-12-07T14:27:53;6.90;99.90
23991;DHT22;12205;50.600;4.608;2022-12-07T14:30:26;6.90;99.90
23991;DHT22;12205;50.600;4.608;2022-12-07T14:32:57;6.90;99.90
23991;DHT22;12205;50.600;4.608;2022-12-07T14:35:26;6.90;99.90
23991;DHT22;12205;50.600;4.608;2022-12-07T14:37:54;6.80;99.90
23991;DHT22;12205;50.600;4.608;2022-12-07T14:40:23;6.80;99.90
23991;DHT22;12205;50.600;4.608;2022-12-07T14:42:56;6.80;99.90
23991;DHT22;12205;50.600;4.608;2022-12-07T14:45:28;6.80;99.90
23991;DHT22;12205;50.600;4.608;2022-12-07T14:47:55;6.80;99.90
23991;DHT22;12205;50.600;4.608;2022-12-07T14:50:23;6.80;99.90
23991;DHT22;12205;50.600;4.608;2022-12-07T14:52:54;6.70;99.90
23991;DHT22;12205;50.600;4.608;2022-12-07T14:55:24;6.60;99.90
23991;DHT22;12205;50.600;4.608;2022-12-07T14:57:53;6.60;99.90
23991;DHT22;12205;50.600;4.608;2022-12-07T15:00:23;6.60;99.90
23991;DHT22;12205;50.600;4.608;2022-12-07T15:02:53;6.60;99.90
23991;DHT22;12205;50.600;4.608;2022-12-07T15:05:21;6.60;99.90
23991;DHT22;12205;50.600;4.608;2022-12-07T15:07:49;6.50;99.90
23991;DHT22;12205;50.600;4.608;2022-12-07T15:10:20;6.40;99.90
23991;DHT22;12205;50.600;4.608;2022-12-07T15:12:49;6.40;99.90
23991;DHT22;12205;50.600;4.608;2022-12-07T15:15:16;6.40;99.90
23991;DHT22;12205;50.600;4.608;2022-12-07T15:17:45;6.40;99.90
23991;DHT22;12205;50.600;4.608;2022-12-07T15:20:15;6.40;99.90
23991;DHT22;12205;50.600;4.608;2022-12-07T15:22:43;6.40;99.90
23991;DHT22;12205;50.600;4.608;2022-12-07T15:25:13;6.40;99.90
23991;DHT22;12205;50.600;4.608;2022-12-07T15:27:40;6.40;99.90
23991;DHT22;12205;50.600;4.608;2022-12-07T15:30:08;6.40;99.90
23991;DHT22;12205;50.600;4.608;2022-12-07T15:32:36;6.50;99.90
23991;DHT22;12205;50.600;4.608;2022-12-07T15:35:03;6.50;99.90
23991;DHT22;12205;50.600;4.608;2022-12-07T15:37:32;6.50;99.90
23991;DHT22;12205;50.600;4.608;2022-12-07T15:40:00;6.50;99.90
23991;DHT22;12205;50.600;4.608;2022-12-07T15:42:27;6.50;99.90
23991;DHT22;12205;50.600;4.608;2022-12-07T15:44:54;6.50;99.90
23991;DHT22;12205;50.600;4.608;2022-12-07T15:47:30;6.50;99.90
23991;DHT22;12205;50.600;4.608;2022-12-07T15:49:57;6.50;99.90
23991;DHT22;12205;50.600;4.608;2022-12-07T15:52:24;6.50;99.90
23991;DHT22;12205;50.600;4.608;2022-12-07T15:54:53;6.30;99.90
23991;DHT22;12205;50.600;4.608;2022-12-07T15:57:21;6.30;99.90
23991;DHT22;12205;50.600;4.608;2022-12-07T15:59:48;6.20;99.90
23991;DHT22;12205;50.600;4.608;2022-12-07T16:02:15;6.20;99.90
23991;DHT22;12205;50.600;4.608;2022-12-07T16:04:43;6.20;99.90
23991;DHT22;12205;50.600;4.608;2022-12-07T16:07:10;6.20;99.90
23991;DHT22;12205;50.600;4.608;2022-12-07T16:09:40;6.10;99.90
23991;DHT22;12205;50.600;4.608;2022-12-07T16:12:09;6.10;99.90
23991;DHT22;12205;50.600;4.608;2022-12-07T16:14:36;6.10;99.90
23991;DHT22;12205;50.600;4.608;2022-12-07T16:17:04;6.10;99.90
23991;DHT22;12205;50.600;4.608;2022-12-07T16:19:32;6.00;99.90
23991;DHT22;12205;50.600;4.608;2022-12-07T16:22:00;6.00;99.90
23991;DHT22;12205;50.600;4.608;2022-12-07T16:24:27;6.00;99.90
23991;DHT22;12205;50.600;4.608;2022-12-07T16:26:55;5.90;99.90
23991;DHT22;12205;50.600;4.608;2022-12-07T16:29:24;5.90;99.90
23991;DHT22;12205;50.600;4.608;2022-12-07T16:31:52;5.90;99.90
23991;DHT22;12205;50.600;4.608;2022-12-07T16:34:19;5.90;99.90
23991;DHT22;12205;50.600;4.608;2022-12-07T16:36:46;5.90;99.90
23991;DHT22;12205;50.600;4.608;2022-12-07T16:39:13;5.80;99.90
23991;DHT22;12205;50.600;4.608;2022-12-07T16:41:41;5.80;99.90
23991;DHT22;12205;50.600;4.608;2022-12-07T16:44:10;5.80;99.90
23991;DHT22;12205;50.600;4.608;2022-12-07T16:46:41;5.80;99.90
23991;DHT22;12205;50.600;4.608;2022-12-07T16:49:11;5.70;99.90
23991;DHT22;12205;50.600;4.608;2022-12-07T16:51:39;5.80;99.90
23991;DHT22;12205;50.600;4.608;2022-12-07T16:54:10;5.80;99.90
23991;DHT22;12205;50.600;4.608;2022-12-07T16:56:38;5.80;99.90